Ray City, Georgia
Current Conditions -  °F | °C
As of 5:58 PM on Wednesday 26 Nov 2014 (Local Time) from KVAD Reporting Station
Clear Clear  
Wind Chill: 54°   Ceiling: Unl
Heat Index: 54°   Visibility: 10mi
Dew Point: 30°   Wind: 5mph
Humidity: 40%   Direction: 200°SSW
Pressure: 30.14"   Gusts: NA
Location:  31.07°N, 83.2°W
Report Text: KVAD 262258Z AUTO 20004KT 10SM CLR 12/M01 A3014 RMK AO2 SLP209 T01231009 $
Loading
Personal Weather Stations






























Interactive Weather Map New forecast layout! Learn more

10-Day Weather Forecast

Advertisements
Track Severe Weather on mobile